Time;durP1;ratioP1;P1;durP2;ratioP2;P2;SDS_P1;SDS_P2;PMS_P1;PMS_P2;Temp;Humidity;BMP_temperature;BMP_pressure;BME280_temperature;BME280_humidity;BME280_pressure;Samples;Min_cycle;Max_cycle;Signal;HPM_P1;HPM_P2
2022/05/05 00:00:30;;;;;;;7.90;4.75;;;;;;;9.65;93.16;102034.59;5034612;28;20054;-28
2022/05/05 00:02:58;;;;;;;7.28;4.50;;;;;;;9.67;92.90;102040.75;5034921;28;20067;-33
2022/05/05 00:05:26;;;;;;;8.38;5.65;;;;;;;9.68;92.97;102039.63;5035368;28;20076;-30
2022/05/05 00:07:53;;;;;;;10.93;5.72;;;;;;;9.68;93.38;102034.91;5035364;28;20061;-34
2022/05/05 00:15:54;;;;;;;14.75;7.65;;;;;;;9.67;94.98;102038.81;5035540;28;20049;-28
2022/05/05 00:18:21;;;;;;;16.10;8.13;;;;;;;9.67;95.33;102037.97;5033394;28;20232;-29
2022/05/05 00:20:49;;;;;;;13.65;7.30;;;;;;;9.65;96.23;102037.38;5035222;28;20055;-30
2022/05/05 00:23:17;;;;;;;12.48;7.25;;;;;;;9.64;96.43;102035.69;5034492;28;20056;-29
2022/05/05 00:25:46;;;;;;;12.25;6.97;;;;;;;9.64;96.60;102035.69;5035109;28;20141;-29
2022/05/05 00:28:14;;;;;;;10.50;6.25;;;;;;;9.64;96.27;102032.91;5035111;28;20057;-30
2022/05/05 00:30:41;;;;;;;11.43;7.05;;;;;;;9.66;96.75;102028.75;5034154;28;20045;-34
2022/05/05 00:33:09;;;;;;;11.80;6.80;;;;;;;9.68;96.51;102025.72;5034771;28;20548;-31
2022/05/05 00:35:37;;;;;;;17.00;8.20;;;;;;;9.67;97.30;102026.81;5034854;28;20067;-31
2022/05/05 00:38:05;;;;;;;12.70;7.72;;;;;;;9.65;97.74;102020.66;5034233;28;20057;-34
2022/05/05 00:40:33;;;;;;;11.82;7.00;;;;;;;9.67;97.51;102026.81;5034867;28;20064;-28
2022/05/05 00:43:03;;;;;;;8.20;5.20;;;;;;;9.68;97.53;102034.06;5033450;28;20491;-30
2022/05/05 00:45:31;;;;;;;8.02;4.97;;;;;;;9.71;97.02;102032.69;5034235;28;20046;-29
2022/05/05 00:48:04;;;;;;;7.35;4.20;;;;;;;9.75;96.78;102031.91;5034904;28;20457;-27
2022/05/05 00:50:33;;;;;;;10.95;6.57;;;;;;;9.78;96.50;102036.13;5034788;28;20037;-31
2022/05/05 00:53:01;;;;;;;9.18;6.05;;;;;;;9.80;96.46;102034.72;5034105;28;20064;-33
2022/05/05 00:55:32;;;;;;;9.55;6.03;;;;;;;9.81;96.61;102033.63;5034481;28;20057;-34
2022/05/05 00:58:00;;;;;;;11.15;7.13;;;;;;;9.82;96.77;102032.50;5034855;28;20045;-33
2022/05/05 01:00:29;;;;;;;10.65;6.28;;;;;;;9.82;97.26;102035.31;5033435;28;20097;-31
2022/05/05 01:03:00;;;;;;;15.00;8.23;;;;;;;9.81;97.11;102039.19;5034557;28;20045;-30
2022/05/05 01:05:29;;;;;;;12.65;7.97;;;;;;;9.82;97.42;102040.03;5033713;28;20045;-33
2022/05/05 01:07:57;;;;;;;13.40;6.35;;;;;;;9.82;97.62;102035.31;5034241;28;20052;-35
2022/05/05 01:10:26;;;;;;;12.10;6.68;;;;;;;9.81;97.74;102036.41;5034570;28;20055;-28
2022/05/05 01:12:54;;;;;;;12.35;7.32;;;;;;;9.83;97.85;102036.13;5032638;28;20068;-34
2022/05/05 01:15:22;;;;;;;12.93;7.30;;;;;;;9.83;97.88;102036.97;5033174;28;20057;-32
2022/05/05 01:17:51;;;;;;;10.60;6.35;;;;;;;9.83;98.10;102039.78;5034197;28;20563;-31
2022/05/05 01:20:22;;;;;;;9.65;6.35;;;;;;;9.83;98.13;102039.78;5031980;28;20411;-30
2022/05/05 01:22:51;;;;;;;10.38;5.60;;;;;;;9.83;98.63;102036.97;5034000;28;20050;-28
2022/05/05 01:28:13;;;;;;;15.57;6.80;;;;;;;9.85;98.38;102040.34;5033439;28;20046;-32
2022/05/05 01:30:42;;;;;;;9.93;6.10;;;;;;;9.87;98.22;102037.28;5033912;28;20057;-34
2022/05/05 01:33:15;;;;;;;12.05;6.43;;;;;;;9.89;98.29;102035.94;5034043;28;20055;-28
2022/05/05 01:35:44;;;;;;;7.82;5.20;;;;;;;9.91;98.08;102039.28;5033365;28;20132;-30
2022/05/05 01:38:15;;;;;;;9.15;6.07;;;;;;;9.92;98.15;102043.75;5033887;28;20049;-27
2022/05/05 01:40:46;;;;;;;6.57;5.20;;;;;;;9.93;98.00;102030.66;5033118;28;20049;-37
2022/05/05 01:43:14;;;;;;;8.32;5.28;;;;;;;9.93;98.21;102033.44;5034191;28;20124;-34
2022/05/05 01:45:43;;;;;;;7.72;4.90;;;;;;;9.93;97.99;102037.09;5033555;28;20483;-33
2022/05/05 01:48:11;;;;;;;8.18;5.10;;;;;;;9.93;97.95;102034.28;5032927;28;20498;-29
2022/05/05 01:50:39;;;;;;;10.88;6.68;;;;;;;9.92;98.18;102035.41;5033815;28;20038;-32
2022/05/05 01:53:07;;;;;;;12.18;7.53;;;;;;;9.92;98.21;102042.94;5033547;28;20065;-34
2022/05/05 01:55:36;;;;;;;11.60;7.72;;;;;;;9.92;98.23;102038.19;5032715;28;20042;-33
2022/05/05 01:58:04;;;;;;;10.60;7.10;;;;;;;9.93;98.07;102041.81;5033427;28;20138;-31
2022/05/05 02:00:32;;;;;;;8.13;5.97;;;;;;;9.92;98.21;102045.72;5033618;28;20056;-27
2022/05/05 02:03:01;;;;;;;9.25;6.05;;;;;;;9.94;98.29;102049.09;5032680;28;20044;-28
2022/05/05 02:05:28;;;;;;;14.73;9.00;;;;;;;9.93;98.16;102039.03;5033223;28;20124;-30
2022/05/05 02:07:56;;;;;;;12.77;7.93;;;;;;;9.93;98.01;102042.66;5033348;28;20057;-27
2022/05/05 02:10:24;;;;;;;11.23;6.78;;;;;;;9.94;98.32;102037.94;5032452;28;20045;-32
2022/05/05 02:12:54;;;;;;;14.85;8.93;;;;;;;9.93;98.34;102037.09;5032302;28;20080;-33
2022/05/05 02:15:21;;;;;;;12.38;8.00;;;;;;;9.94;98.17;102043.50;5033370;28;20049;-29
2022/05/05 02:17:50;;;;;;;11.55;7.55;;;;;;;9.93;98.25;102051.03;5032327;28;20057;-29
2022/05/05 02:20:18;;;;;;;12.25;8.57;;;;;;;9.92;98.18;102046.56;5032908;28;20514;-32
2022/05/05 02:22:46;;;;;;;12.98;8.30;;;;;;;9.93;98.43;102051.03;5032371;28;20107;-36
2022/05/05 02:25:14;;;;;;;9.90;5.95;;;;;;;9.90;98.69;102045.97;5032668;28;20053;-32
2022/05/05 02:27:46;;;;;;;10.50;6.38;;;;;;;9.93;98.47;102052.97;5032833;28;20508;-31
2022/05/05 02:30:15;;;;;;;9.98;6.65;;;;;;;9.92;98.07;102052.13;5032210;28;20053;-31
2022/05/05 02:32:43;;;;;;;14.02;7.82;;;;;;;9.92;98.36;102046.56;5032974;28;20057;-30
2022/05/05 02:35:11;;;;;;;13.95;8.23;;;;;;;9.92;98.32;102048.50;5032695;28;20383;-29
2022/05/05 02:40:25;;;;;;;11.52;7.07;;;;;;;9.92;98.36;102045.72;5032625;28;20132;-32
2022/05/05 02:42:52;;;;;;;16.58;8.95;;;;;;;9.93;98.23;102047.41;5048232;28;20046;-34
2022/05/05 02:45:22;;;;;;;10.48;6.78;;;;;;;9.94;98.02;102049.09;5031792;28;20041;-31
2022/05/05 02:47:50;;;;;;;8.43;5.70;;;;;;;9.94;98.05;102046.28;5032518;28;20503;-28
2022/05/05 02:50:18;;;;;;;7.00;5.03;;;;;;;9.96;97.79;102056.06;5032261;28;20049;-28
2022/05/05 02:52:46;;;;;;;8.20;5.25;;;;;;;9.97;97.38;102054.97;5031769;28;20053;-32
2022/05/05 02:55:13;;;;;;;8.60;5.47;;;;;;;9.99;97.50;102052.72;5032569;28;20045;-33
2022/05/05 02:57:41;;;;;;;10.65;6.80;;;;;;;10.01;97.50;102044.09;5032549;28;20051;-32
2022/05/05 03:00:12;;;;;;;12.23;7.47;;;;;;;10.00;97.92;102048.84;5031384;28;20052;-28
2022/05/05 03:02:42;;;;;;;9.85;6.70;;;;;;;9.99;97.97;102055.50;5047530;28;20093;-34
2022/05/05 03:05:10;;;;;;;12.25;7.78;;;;;;;9.98;97.95;102045.50;5031749;28;20060;-26
2022/05/05 03:07:38;;;;;;;10.38;6.43;;;;;;;9.99;97.49;102047.16;5032327;28;20499;-29
2022/05/05 03:10:07;;;;;;;8.48;5.35;;;;;;;9.99;97.64;102044.38;5032323;28;20048;-30
2022/05/05 03:12:35;;;;;;;7.60;4.72;;;;;;;10.01;97.78;102044.94;5031497;28;20049;-28
2022/05/05 03:15:03;;;;;;;10.82;6.22;;;;;;;10.01;97.73;102036.56;5031951;28;20415;-29
2022/05/05 03:17:32;;;;;;;9.32;5.45;;;;;;;10.02;97.76;102046.63;5032119;28;20096;-28
2022/05/05 03:20:01;;;;;;;8.18;5.70;;;;;;;10.03;97.66;102053.03;5031320;28;20041;-34
2022/05/05 03:22:29;;;;;;;11.98;7.60;;;;;;;10.03;97.81;102051.09;5032076;28;20140;-31
2022/05/05 03:24:57;;;;;;;11.38;8.13;;;;;;;10.02;97.96;102052.19;5031797;28;20612;-36
2022/05/05 03:27:24;;;;;;;13.30;8.60;;;;;;;10.01;98.42;102046.88;5031213;28;20052;-30
2022/05/05 03:29:52;;;;;;;14.25;8.55;;;;;;;9.99;99.27;102043.56;5031804;28;20080;-30
2022/05/05 03:32:20;;;;;;;13.82;8.88;;;;;;;9.97;99.25;102048.56;5032363;28;20107;-32
2022/05/05 03:34:48;;;;;;;13.77;8.93;;;;;;;9.95;100.00;102047.97;5030003;28;20490;-33
2022/05/05 03:37:17;;;;;;;14.02;8.40;;;;;;;9.93;100.00;102039.88;5029949;28;20480;-34
2022/05/05 03:39:45;;;;;;;12.88;8.75;;;;;;;9.90;100.00;102037.59;5031432;28;20512;-30
2022/05/05 03:42:13;;;;;;;15.38;8.68;;;;;;;9.91;100.00;102039.28;5030372;28;20042;-33
2022/05/05 03:44:41;;;;;;;15.40;8.32;;;;;;;9.91;100.00;102041.25;5031538;28;20054;-31
2022/05/05 03:47:09;;;;;;;13.88;8.18;;;;;;;9.90;100.00;102037.59;5030796;28;20053;-28
2022/05/05 03:49:37;;;;;;;14.02;7.63;;;;;;;9.91;100.00;102042.09;5031711;28;20049;-29
2022/05/05 03:52:05;;;;;;;13.55;8.10;;;;;;;9.92;100.00;102038.19;5031633;28;20050;-32
2022/05/05 03:54:34;;;;;;;10.60;6.68;;;;;;;9.92;100.00;102038.19;5030764;28;20053;-31
2022/05/05 03:57:03;;;;;;;9.70;6.15;;;;;;;9.94;100.00;102047.13;5031950;28;20050;-25
2022/05/05 03:59:30;;;;;;;12.73;7.82;;;;;;;9.96;100.00;102044.09;5031662;28;20053;-32
2022/05/05 04:01:58;;;;;;;10.98;6.85;;;;;;;9.96;100.00;102042.13;5030639;28;20521;-33
2022/05/05 04:04:26;;;;;;;14.68;8.35;;;;;;;9.98;100.00;102044.66;5031641;28;20053;-28
2022/05/05 04:06:54;;;;;;;12.27;6.88;;;;;;;9.98;100.00;102050.22;5031142;28;20057;-31
2022/05/05 04:09:22;;;;;;;11.52;6.82;;;;;;;9.99;100.00;102049.13;5030381;28;20060;-30
2022/05/05 04:11:51;;;;;;;10.63;7.22;;;;;;;9.99;100.00;102055.50;5031375;28;20364;-36
2022/05/05 04:14:18;;;;;;;13.00;8.25;;;;;;;9.98;100.00;102056.66;5030330;28;20407;-30
2022/05/05 04:16:46;;;;;;;12.18;7.68;;;;;;;10.01;100.00;102066.41;5030629;28;20038;-34
2022/05/05 04:19:14;;;;;;;11.52;6.93;;;;;;;10.01;100.00;102063.63;5030585;28;20539;-34
2022/05/05 04:21:42;;;;;;;14.10;7.93;;;;;;;10.00;100.00;102064.72;5031431;28;20053;-35
2022/05/05 04:24:11;;;;;;;12.93;8.15;;;;;;;10.01;100.00;102067.25;5030849;28;20056;-32
2022/05/05 04:26:39;;;;;;;11.30;7.35;;;;;;;10.01;100.00;102067.25;5031526;28;20054;-27
2022/05/05 04:29:09;;;;;;;10.25;7.50;;;;;;;10.01;100.00;102070.03;5031582;28;20148;-28
2022/05/05 04:31:37;;;;;;;12.55;7.07;;;;;;;10.02;100.00;102068.09;5029318;28;20053;-33
2022/05/05 04:34:06;;;;;;;13.57;8.55;;;;;;;10.03;100.00;102070.63;5031244;28;20053;-35
2022/05/05 04:36:34;;;;;;;13.88;8.65;;;;;;;10.04;100.00;102074.25;5033245;28;20420;-32
2022/05/05 04:39:02;;;;;;;13.82;9.02;;;;;;;10.06;100.00;102080.41;5035073;28;20056;-25
2022/05/05 04:41:30;;;;;;;13.05;7.90;;;;;;;10.06;100.00;102073.97;5035010;28;20038;-28
2022/05/05 04:43:58;;;;;;;11.55;7.70;;;;;;;10.07;100.00;102076.50;5033963;28;20076;-32
2022/05/05 04:46:27;;;;;;;14.02;8.25;;;;;;;10.08;100.00;102071.78;5034714;28;20085;-26
2022/05/05 04:48:56;;;;;;;10.68;7.05;;;;;;;10.07;100.00;102084.03;5034675;28;20048;-29
2022/05/05 04:51:23;;;;;;;14.02;7.90;;;;;;;10.09;100.00;102084.59;5034095;28;20068;-32
2022/05/05 04:53:51;;;;;;;13.48;8.52;;;;;;;10.10;100.00;102086.28;5034794;28;20049;-29
2022/05/05 04:56:19;;;;;;;16.13;10.00;;;;;;;10.12;100.00;102084.94;5034609;28;20045;-32
2022/05/05 04:58:47;;;;;;;16.52;10.88;;;;;;;10.16;100.00;102096.41;5033845;28;20042;-28
2022/05/05 05:01:14;;;;;;;11.45;8.00;;;;;;;10.18;100.00;102097.81;5034553;28;20410;-31
2022/05/05 05:03:43;;;;;;;9.35;6.45;;;;;;;10.23;100.00;102102.59;5034366;28;20099;-33
2022/05/05 05:06:11;;;;;;;10.35;6.20;;;;;;;10.26;100.00;102110.44;5033568;28;20049;-32
2022/05/05 05:08:40;;;;;;;10.73;7.05;;;;;;;10.30;100.00;102109.66;5034382;28;20065;-36
2022/05/05 05:11:07;;;;;;;12.35;7.72;;;;;;;10.35;100.00;102106.06;5034237;28;20406;-26
2022/05/05 05:13:36;;;;;;;17.10;9.85;;;;;;;10.38;100.00;102115.84;5033604;28;20041;-33
2022/05/05 05:16:06;;;;;;;14.02;9.57;;;;;;;10.41;100.00;102112.50;5034130;28;20053;-29
2022/05/05 05:18:55;;;;;;;14.75;8.32;;;;;;;10.42;100.00;102114.19;5033169;28;20092;-29
2022/05/05 05:21:23;;;;;;;17.13;9.65;;;;;;;10.44;100.00;102121.19;5033957;28;20049;-38
2022/05/05 05:23:51;;;;;;;12.52;8.20;;;;;;;10.49;100.00;102125.97;5034026;28;20406;-31
2022/05/05 05:26:18;;;;;;;14.65;9.70;;;;;;;10.52;100.00;102128.22;5033179;28;20041;-33
2022/05/05 05:28:46;;;;;;;14.05;7.65;;;;;;;10.56;100.00;102133.03;5034238;28;20052;-33
2022/05/05 05:31:14;;;;;;;16.42;9.95;;;;;;;10.58;100.00;102127.16;5034118;28;20529;-30
2022/05/05 05:33:42;;;;;;;13.95;9.63;;;;;;;10.61;100.00;102129.41;5033134;28;20414;-31
2022/05/05 05:36:11;;;;;;;13.80;8.48;;;;;;;10.65;100.00;102133.34;5033910;28;20065;-29
2022/05/05 05:38:38;;;;;;;16.27;9.63;;;;;;;10.68;100.00;102138.38;5033719;28;20132;-34
2022/05/05 05:41:06;;;;;;;17.05;9.60;;;;;;;10.72;100.00;102147.06;5032843;28;20533;-32
2022/05/05 05:43:34;;;;;;;13.00;8.88;;;;;;;10.76;100.00;102151.84;5033875;28;20490;-30
2022/05/05 05:46:02;;;;;;;16.05;9.57;;;;;;;10.81;100.00;102148.22;5033611;28;20049;-36
2022/05/05 05:48:29;;;;;;;18.38;10.65;;;;;;;10.82;100.00;102139.59;5032118;28;20045;-31
2022/05/05 05:50:57;;;;;;;17.58;10.52;;;;;;;10.85;100.00;102143.81;5032343;28;20049;-30
2022/05/05 05:53:26;;;;;;;18.08;10.50;;;;;;;10.90;100.00;102157.81;5032256;28;20056;-30
2022/05/05 05:55:54;;;;;;;20.05;10.38;;;;;;;10.90;100.00;102149.44;5031674;28;20061;-30
2022/05/05 05:58:22;;;;;;;20.30;12.02;;;;;;;10.91;100.00;102153.91;5030329;28;20041;-32
2022/05/05 06:00:49;;;;;;;16.40;10.55;;;;;;;10.91;100.00;102157.53;5027851;28;20053;-32
2022/05/05 06:06:03;;;;;;;17.63;10.73;;;;;;;11.07;100.00;102164.03;5030385;28;20041;-28
2022/05/05 06:08:32;;;;;;;16.02;9.93;;;;;;;11.15;100.00;102165.50;5030116;28;20048;-29
2022/05/05 06:11:00;;;;;;;16.40;9.07;;;;;;;11.18;100.00;102165.81;5031972;28;20045;-28
2022/05/05 06:13:28;;;;;;;18.48;10.85;;;;;;;11.19;100.00;102161.06;5031579;28;20052;-30
2022/05/05 06:15:55;;;;;;;15.32;9.57;;;;;;;11.21;100.00;102164.38;5030964;28;20046;-29
2022/05/05 06:18:23;;;;;;;20.02;11.15;;;;;;;11.27;100.00;102154.94;5031730;28;20057;-29
2022/05/05 06:20:53;;;;;;;17.20;10.65;;;;;;;11.31;100.00;102170.03;5030855;28;20049;-26
2022/05/05 06:23:20;;;;;;;16.70;9.88;;;;;;;11.34;100.00;102170.34;5031028;28;20045;-29
2022/05/05 06:25:49;;;;;;;16.15;9.65;;;;;;;11.36;100.00;102170.91;5031638;28;20053;-30
2022/05/05 06:28:17;;;;;;;16.42;10.15;;;;;;;11.36;100.00;102173.72;5031611;28;20053;-33
2022/05/05 06:30:45;;;;;;;15.35;9.32;;;;;;;11.37;100.00;102178.19;5030584;28;20041;-29
2022/05/05 06:33:12;;;;;;;12.50;8.27;;;;;;;11.44;100.00;102182.66;5031433;28;20068;-32
2022/05/05 06:35:40;;;;;;;16.80;9.10;;;;;;;11.49;100.00;102182.69;5031483;28;20045;-31
2022/05/05 06:38:08;;;;;;;18.30;8.85;;;;;;;11.54;100.00;102179.94;4128291;28;10000530;-31
2022/05/05 06:40:36;;;;;;;18.75;10.15;;;;;;;11.58;100.00;102181.06;5061377;28;20061;-29
2022/05/05 06:43:05;;;;;;;13.07;9.13;;;;;;;11.66;100.00;102183.31;5050628;28;20128;-29
2022/05/05 06:45:33;;;;;;;17.23;10.32;;;;;;;11.66;100.00;102186.97;5051305;28;20053;-29
2022/05/05 06:48:01;;;;;;;16.35;9.13;;;;;;;11.70;100.00;102190.06;5051588;28;20048;-27
2022/05/05 06:50:29;;;;;;;17.02;9.02;;;;;;;11.74;100.00;102189.22;5050114;28;20056;-27
2022/05/05 06:52:59;;;;;;;19.05;9.18;;;;;;;11.78;100.00;102181.19;5050902;28;20475;-31
2022/05/05 06:55:26;;;;;;;17.45;8.88;;;;;;;11.79;99.60;102182.00;5051193;28;20044;-32
2022/05/05 06:57:54;;;;;;;12.32;7.47;;;;;;;11.84;99.28;102190.41;5048288;28;20049;-34
2022/05/05 07:00:23;;;;;;;15.48;8.93;;;;;;;11.94;99.13;102191.28;5050253;28;20052;-32
2022/05/05 07:02:50;;;;;;;16.73;9.82;;;;;;;12.01;97.93;102189.03;5050494;28;20045;-28
2022/05/05 07:05:28;;;;;;;19.95;9.77;;;;;;;12.03;97.27;102186.81;5050356;28;20064;-28
2022/05/05 07:07:55;;;;;;;16.15;8.60;;;;;;;12.07;96.80;102190.75;5051123;28;20056;-27
2022/05/05 07:13:09;;;;;;;13.90;8.75;;;;;;;12.19;95.89;102179.28;5050037;28;20055;-33
2022/05/05 07:15:40;;;;;;;15.15;7.90;;;;;;;12.25;95.66;102189.38;5050964;28;20482;-30
2022/05/05 07:18:08;;;;;;;13.00;7.90;;;;;;;12.32;95.11;102191.91;5050930;28;20136;-34
2022/05/05 07:20:36;;;;;;;13.25;8.18;;;;;;;12.40;94.91;102189.38;5050843;28;20063;-29
2022/05/05 07:23:05;;;;;;;11.23;7.15;;;;;;;12.50;94.43;102205.34;5049215;28;20052;-32
2022/05/05 07:25:33;;;;;;;11.10;6.20;;;;;;;12.60;94.36;102205.34;5049500;28;20057;-29
2022/05/05 07:28:01;;;;;;;13.25;7.40;;;;;;;12.75;94.24;102201.72;5049967;28;20522;-28
2022/05/05 07:30:29;;;;;;;15.75;8.93;;;;;;;12.81;93.09;102205.31;4171738;28;10000653;-31
2022/05/05 07:32:58;;;;;;;15.80;8.13;;;;;;;12.86;92.46;102208.13;5048839;28;20049;-29
2022/05/05 07:35:26;;;;;;;15.43;8.52;;;;;;;12.92;92.12;102204.22;5050409;28;20044;-29
2022/05/05 07:37:54;;;;;;;15.65;7.72;;;;;;;12.99;91.84;102204.78;5050758;28;20470;-29
2022/05/05 07:40:21;;;;;;;15.32;9.07;;;;;;;13.03;90.98;102209.50;5049910;28;20056;-29
2022/05/05 07:42:49;;;;;;;12.88;7.60;;;;;;;13.11;90.50;102211.75;5050474;28;20055;-34
2022/05/05 07:45:18;;;;;;;13.55;8.07;;;;;;;13.20;90.25;102212.03;5050521;28;20056;-28
2022/05/05 07:47:46;;;;;;;10.13;6.68;;;;;;;13.32;90.15;102214.53;5049866;28;20045;-29
2022/05/05 07:50:15;;;;;;;15.60;8.13;;;;;;;13.40;89.47;102214.78;5050369;28;20521;-28
2022/05/05 07:52:43;;;;;;;16.77;9.63;;;;;;;13.42;88.55;102218.13;5050688;28;20480;-30
2022/05/05 07:55:11;;;;;;;16.63;9.63;;;;;;;13.47;88.17;102219.25;5049656;28;20088;-27
2022/05/05 07:57:43;;;;;;;16.27;9.35;;;;;;;13.47;87.80;102216.44;5048438;28;20041;-28
2022/05/05 08:00:13;;;;;;;16.23;8.27;;;;;;;13.52;87.98;102220.06;5050430;28;20413;-35
2022/05/05 08:02:41;;;;;;;17.20;9.80;;;;;;;13.59;87.59;102219.78;5049275;28;20422;-30
2022/05/05 08:05:12;;;;;;;15.73;9.32;;;;;;;13.67;87.70;102230.38;5050793;28;20059;-29
2022/05/05 08:07:45;;;;;;;12.63;7.60;;;;;;;13.85;87.97;102235.34;4139183;28;10000993;-32
2022/05/05 08:10:13;;;;;;;16.33;9.98;;;;;;;14.01;87.48;102230.50;5050768;28;20508;-29
2022/05/05 08:12:41;;;;;;;16.45;9.88;;;;;;;14.14;86.99;102244.75;5054341;28;20421;-29
2022/05/05 08:15:10;;;;;;;16.00;8.93;;;;;;;14.26;86.57;102244.41;5068467;28;20052;-35
2022/05/05 08:17:38;;;;;;;16.85;10.25;;;;;;;14.34;85.83;102246.59;5054064;28;20067;-27
2022/05/05 08:20:08;;;;;;;13.93;8.60;;;;;;;14.42;85.63;102246.00;5054030;28;20122;-33
2022/05/05 08:22:36;;;;;;;16.45;8.65;;;;;;;14.59;85.84;102247.59;5053180;28;20486;-29
2022/05/05 08:30:38;;;;;;;17.95;11.00;;;;;;;14.98;84.72;102248.38;5053162;28;20064;-34
2022/05/05 08:33:06;;;;;;;18.92;12.38;;;;;;;15.15;84.38;102256.38;5054077;28;20405;-27
2022/05/05 08:35:33;;;;;;;19.30;11.75;;;;;;;15.21;83.36;102255.16;5052727;28;20083;-28
2022/05/05 08:38:01;;;;;;;24.27;13.73;;;;;;;15.32;83.96;102265.19;5052978;28;20068;-29
2022/05/05 08:40:30;;;;;;;24.58;15.45;;;;;;;15.42;83.07;102261.41;5054458;28;20045;-34
2022/05/05 08:42:58;;;;;;;21.08;13.48;;;;;;;15.55;83.23;102259.91;5052810;28;20087;-32
2022/05/05 08:45:33;;;;;;;24.92;16.33;;;;;;;15.70;82.60;102259.75;5054769;28;20068;-31
2022/05/05 08:48:05;;;;;;;24.92;16.17;;;;;;;15.87;82.15;102257.28;5054628;28;20063;-32
2022/05/05 08:50:34;;;;;;;26.27;17.52;;;;;;;15.98;81.27;102266.44;5053169;28;20140;-29
2022/05/05 08:53:04;;;;;;;25.95;17.08;;;;;;;16.07;81.18;102268.28;5053908;28;20049;-25
2022/05/05 08:55:35;;;;;;;20.50;14.25;;;;;;;16.07;80.18;102259.81;5054780;28;20414;-33
2022/05/05 08:58:03;;;;;;;29.65;18.25;;;;;;;16.14;80.76;102267.91;5052643;28;20052;-28
2022/05/05 09:00:31;;;;;;;24.40;16.05;;;;;;;16.19;80.12;102273.44;5051021;28;20065;-36
2022/05/05 09:03:00;;;;;;;22.08;14.85;;;;;;;16.34;80.93;102278.88;5051847;28;20382;-30
2022/05/05 09:05:47;;;;;;;26.35;16.58;;;;;;;16.58;79.57;102276.00;5052367;28;20069;-29
2022/05/05 09:08:27;;;;;;;20.27;13.88;;;;;;;16.61;79.28;102274.53;5052575;28;20426;-28
2022/05/05 09:10:58;;;;;;;21.92;14.75;;;;;;;16.62;79.14;102273.38;5053400;28;20056;-32
2022/05/05 09:13:27;;;;;;;27.70;17.90;;;;;;;16.66;79.55;102275.31;5053556;28;20048;-35
2022/05/05 09:15:55;;;;;;;31.88;20.17;;;;;;;16.72;79.17;102278.91;5053500;28;20060;-27
2022/05/05 09:18:26;;;;;;;31.17;19.85;;;;;;;16.74;79.37;102288.75;5052877;28;20045;-31
2022/05/05 09:20:53;;;;;;;26.65;16.35;;;;;;;16.89;79.30;102284.81;5052096;28;20045;-28
2022/05/05 09:23:31;;;;;;;24.13;16.58;;;;;;;16.97;77.96;102291.75;5051298;28;20059;-27
2022/05/05 09:26:02;;;;;;;23.33;16.42;;;;;;;17.03;77.54;102287.69;5052838;28;20521;-32
2022/05/05 09:28:31;;;;;;;22.75;15.50;;;;;;;16.98;76.35;102293.44;5053966;28;20052;-29
2022/05/05 09:31:05;;;;;;;19.20;13.57;;;;;;;17.07;77.40;102297.22;5053428;28;20077;-26
2022/05/05 09:33:38;;;;;;;24.77;15.38;;;;;;;17.35;76.28;102303.78;5052725;28;20049;-29
2022/05/05 09:36:08;;;;;;;22.30;14.98;;;;;;;17.51;75.54;102302.34;5053423;28;20049;-33
2022/05/05 09:38:50;;;;;;;22.58;14.35;;;;;;;17.65;74.88;102303.22;5053270;28;20045;-27
2022/05/05 09:41:20;;;;;;;23.00;14.85;;;;;;;17.85;75.11;102302.00;5053136;28;20041;-33
2022/05/05 09:44:02;;;;;;;23.80;16.02;;;;;;;18.06;73.45;102308.91;5053550;28;20040;-34
2022/05/05 09:46:38;;;;;;;21.05;14.32;;;;;;;18.15;73.53;102307.03;5051221;28;20057;-30
2022/05/05 09:49:17;;;;;;;27.40;16.67;;;;;;;18.40;72.47;102305.59;5051771;28;20048;-28
2022/05/05 09:57:39;;;;;;;22.55;16.38;;;;;;;18.51;71.67;102303.38;5053374;28;20053;-28
2022/05/05 09:57:56;;;;;;;21.52;14.25;;;;;;;18.87;71.12;102312.72;5053292;28;20410;-27
2022/05/05 10:00:43;;;;;;;21.00;14.57;;;;;;;19.15;69.72;102312.63;5052258;28;20081;-34
2022/05/05 10:05:59;;;;;;;24.88;15.65;;;;;;;19.80;68.99;102321.34;5053479;28;20055;-31
2022/05/05 10:08:35;;;;;;;19.08;14.57;;;;;;;20.12;66.88;102320.16;5052438;28;20048;-31
2022/05/05 10:11:06;;;;;;;22.13;15.32;;;;;;;20.32;65.78;102323.53;5052845;28;20049;-26
2022/05/05 10:13:38;;;;;;;19.98;12.45;;;;;;;20.68;65.90;102320.44;5053237;28;20052;-32
2022/05/05 10:16:07;;;;;;;21.13;16.33;;;;;;;21.02;62.86;102319.59;5066801;28;20060;-30
2022/05/05 10:18:37;;;;;;;23.55;16.73;;;;;;;21.28;62.01;102321.28;5053123;28;20045;-30
2022/05/05 10:21:07;;;;;;;24.95;16.15;;;;;;;21.53;61.25;102330.94;5051474;28;20053;-31
2022/05/05 10:23:47;;;;;;;22.55;16.35;;;;;;;21.94;60.60;102332.31;5052924;28;20080;-32
2022/05/05 10:26:20;;;;;;;26.92;17.33;;;;;;;22.26;58.60;102334.50;5052840;28;20040;-28
2022/05/05 10:28:50;;;;;;;23.15;16.85;;;;;;;22.24;58.84;102331.16;5052150;28;20048;-39
2022/05/05 10:31:42;;;;;;;21.02;14.57;;;;;;;22.50;57.26;102336.72;5051835;28;20048;-34
2022/05/05 10:34:19;;;;;;;16.60;11.82;;;;;;;22.43;57.53;102330.72;5051954;28;20057;-35
2022/05/05 10:37:01;;;;;;;17.65;12.27;;;;;;;22.21;55.97;102329.00;5051591;28;20044;-36
2022/05/05 10:39:47;;;;;;;15.98;10.98;;;;;;;22.09;57.36;102331.75;5052653;28;20114;-31
2022/05/05 10:42:17;;;;;;;14.38;10.73;;;;;;;22.17;58.31;102330.06;5050010;28;20490;-33
2022/05/05 10:45:12;;;;;;;18.73;12.93;;;;;;;22.38;55.23;102330.94;5067909;28;20061;-30
2022/05/05 10:48:17;;;;;;;16.33;11.25;;;;;;;22.42;54.25;102337.59;5052767;28;20055;-35
2022/05/05 10:50:53;;;;;;;13.55;9.30;;;;;;;22.25;57.68;102337.69;5051777;28;20410;-31
2022/05/05 10:53:33;;;;;;;15.85;11.32;;;;;;;22.20;54.95;102332.19;5051414;28;20041;-33
2022/05/05 10:56:02;;;;;;;15.02;11.68;;;;;;;21.94;57.07;102338.00;5051250;28;20053;-30
2022/05/05 10:59:05;;;;;;;15.43;10.73;;;;;;;21.86;56.80;102336.84;5049593;28;20131;-30
2022/05/05 11:02:04;;;;;;;15.43;11.05;;;;;;;22.04;56.48;102342.47;5051851;28;20087;-32
2022/05/05 11:04:33;;;;;;;18.33;12.45;;;;;;;22.21;57.86;102351.75;5051654;28;20041;-31
2022/05/05 11:07:36;;;;;;;16.17;12.25;;;;;;;22.37;57.02;102348.34;5067501;28;20064;-30
2022/05/05 11:10:09;;;;;;;15.23;9.75;;;;;;;22.66;57.25;102348.31;5049298;28;20053;-31
2022/05/05 11:12:38;;;;;;;13.32;9.43;;;;;;;22.84;56.35;102341.34;5051427;28;20064;-33
2022/05/05 11:23:42;;;;;;;16.08;11.60;;;;;;;22.47;56.48;102350.78;5052324;28;20060;-39
2022/05/05 11:26:10;;;;;;;15.98;11.30;;;;;;;22.12;57.26;102350.16;5051286;28;20064;-31
2022/05/05 11:28:38;;;;;;;17.98;12.75;;;;;;;21.87;58.11;102354.72;5051740;28;20057;-32
2022/05/05 11:31:16;;;;;;;11.98;9.10;;;;;;;21.89;58.41;102355.22;5051526;28;20049;-35
2022/05/05 11:33:49;;;;;;;14.32;9.98;;;;;;;21.97;58.04;102351.53;5051075;28;20061;-36
2022/05/05 11:36:17;;;;;;;10.65;7.55;;;;;;;22.05;58.08;102352.69;5051831;28;20049;-38
2022/05/05 11:38:45;;;;;;;10.15;7.43;;;;;;;22.29;57.71;102350.88;5050826;28;20382;-30
2022/05/05 11:41:18;;;;;;;9.57;7.72;;;;;;;22.65;56.86;102352.34;5051693;28;20509;-30
2022/05/05 11:46:33;;;;;;;9.35;7.22;;;;;;;23.15;55.14;102340.91;5054173;28;20052;-28
2022/05/05 11:49:03;;;;;;;13.85;9.32;;;;;;;23.25;54.22;102351.88;5055785;28;20048;-30
2022/05/05 11:51:32;;;;;;;17.17;11.52;;;;;;;23.41;54.67;102356.91;5071002;28;20379;-31
2022/05/05 11:54:08;;;;;;;13.30;10.55;;;;;;;23.57;54.29;102355.97;5054801;28;20057;-29
2022/05/05 11:56:38;;;;;;;13.73;11.32;;;;;;;23.78;53.54;102353.00;5055861;28;20051;-30
2022/05/05 12:02:09;;;;;;;22.08;16.92;;;;;;;24.10;51.73;102362.69;5055442;28;20501;-30
2022/05/05 12:04:41;;;;;;;19.98;14.70;;;;;;;24.03;51.98;102359.59;5055750;28;20045;-29
2022/05/05 12:07:11;;;;;;;16.60;13.07;;;;;;;23.95;52.18;102358.53;5054667;28;20084;-30
2022/05/05 12:09:39;;;;;;;21.65;16.20;;;;;;;24.09;51.99;102354.50;5055802;28;20053;-25
2022/05/05 12:12:17;;;;;;;31.38;22.33;;;;;;;23.99;50.82;102350.91;5055479;28;20044;-26